sensor_id;sensor_type;location;lat;lon;timestamp;pressure;altitude;pressure_sealevel;temperature;humidity
24996;BME280;13016;52.162;21.034;2023-06-14T00:04:04;100586.59;;;18.39;67.00
24996;BME280;13016;52.162;21.034;2023-06-14T00:10:11;100575.06;;;18.34;67.25
24996;BME280;13016;52.162;21.034;2023-06-14T00:16:31;100579.31;;;18.30;67.38
24996;BME280;13016;52.162;21.034;2023-06-14T00:22:37;100573.29;;;18.25;67.24
24996;BME280;13016;52.162;21.034;2023-06-14T00:28:38;100574.23;;;18.21;67.08
24996;BME280;13016;52.162;21.034;2023-06-14T00:34:42;100569.27;;;18.11;66.91
24996;BME280;13016;52.162;21.034;2023-06-14T00:40:44;100571.59;;;18.05;67.00
24996;BME280;13016;52.162;21.034;2023-06-14T00:47:01;100568.96;;;18.06;67.16
24996;BME280;13016;52.162;21.034;2023-06-14T00:53:02;100571.13;;;18.04;67.16
24996;BME280;13016;52.162;21.034;2023-06-14T00:59:03;100570.73;;;18.02;67.18
24996;BME280;13016;52.162;21.034;2023-06-14T01:05:06;100567.10;;;18.05;67.32
24996;BME280;13016;52.162;21.034;2023-06-14T01:11:24;100565.10;;;17.99;67.56
24996;BME280;13016;52.162;21.034;2023-06-14T01:17:30;100571.33;;;18.04;67.62
24996;BME280;13016;52.162;21.034;2023-06-14T01:23:32;100573.15;;;18.15;67.55
24996;BME280;13016;52.162;21.034;2023-06-14T01:29:36;100569.87;;;18.22;67.51
24996;BME280;13016;52.162;21.034;2023-06-14T01:35:55;100570.17;;;18.20;67.49
24996;BME280;13016;52.162;21.034;2023-06-14T01:42:16;100564.64;;;18.28;67.50
24996;BME280;13016;52.162;21.034;2023-06-14T01:48:33;100568.66;;;18.34;67.20
24996;BME280;13016;52.162;21.034;2023-06-14T01:54:35;100559.23;;;18.37;67.20
24996;BME280;13016;52.162;21.034;2023-06-14T02:00:38;100554.83;;;18.38;67.23
24996;BME280;13016;52.162;21.034;2023-06-14T02:06:58;100549.70;;;18.38;66.93
24996;BME280;13016;52.162;21.034;2023-06-14T02:20:27;100544.41;;;18.33;66.88
24996;BME280;13016;52.162;21.034;2023-06-14T02:27:08;100553.23;;;18.28;66.98
24996;BME280;13016;52.162;21.034;2023-06-14T02:33:29;100552.55;;;18.16;67.11
24996;BME280;13016;52.162;21.034;2023-06-14T02:39:59;100553.52;;;18.19;67.41
24996;BME280;13016;52.162;21.034;2023-06-14T02:45:59;100545.39;;;18.30;67.36
24996;BME280;13016;52.162;21.034;2023-06-14T02:52:23;100544.79;;;18.35;67.19
24996;BME280;13016;52.162;21.034;2023-06-14T02:58:28;100538.59;;;18.30;66.85
24996;BME280;13016;52.162;21.034;2023-06-14T03:04:31;100533.23;;;18.30;66.97
24996;BME280;13016;52.162;21.034;2023-06-14T03:10:37;100533.33;;;18.35;66.68
24996;BME280;13016;52.162;21.034;2023-06-14T03:17:17;100529.34;;;18.24;66.53
24996;BME280;13016;52.162;21.034;2023-06-14T03:23:26;100530.02;;;18.20;66.46
24996;BME280;13016;52.162;21.034;2023-06-14T03:30:06;100531.77;;;18.22;66.57
24996;BME280;13016;52.162;21.034;2023-06-14T03:36:35;100539.60;;;18.17;66.62
24996;BME280;13016;52.162;21.034;2023-06-14T03:42:56;100538.08;;;18.28;66.73
24996;BME280;13016;52.162;21.034;2023-06-14T03:49:01;100536.98;;;18.38;66.70
24996;BME280;13016;52.162;21.034;2023-06-14T03:55:22;100533.96;;;18.44;66.41
24996;BME280;13016;52.162;21.034;2023-06-14T04:01:50;100540.98;;;18.55;66.16
24996;BME280;13016;52.162;21.034;2023-06-14T04:07:51;100543.95;;;18.69;66.21
24996;BME280;13016;52.162;21.034;2023-06-14T04:13:54;100547.79;;;18.76;65.90
24996;BME280;13016;52.162;21.034;2023-06-14T04:19:55;100549.91;;;18.86;65.51
24996;BME280;13016;52.162;21.034;2023-06-14T04:25:56;100547.14;;;18.92;64.87
24996;BME280;13016;52.162;21.034;2023-06-14T04:31:57;100544.48;;;18.99;64.78
24996;BME280;13016;52.162;21.034;2023-06-14T04:38:18;100534.91;;;19.08;64.76
24996;BME280;13016;52.162;21.034;2023-06-14T04:44:25;100534.72;;;19.27;64.82
24996;BME280;13016;52.162;21.034;2023-06-14T04:50:25;100537.93;;;19.43;64.48
24996;BME280;13016;52.162;21.034;2023-06-14T04:56:26;100538.48;;;19.52;63.84
24996;BME280;13016;52.162;21.034;2023-06-14T05:02:28;100543.67;;;19.57;63.54
24996;BME280;13016;52.162;21.034;2023-06-14T05:25:00;100559.77;;;19.70;62.90
24996;BME280;13016;52.162;21.034;2023-06-14T05:37:48;100563.69;;;19.96;62.53
24996;BME280;13016;52.162;21.034;2023-06-14T05:50:30;100564.02;;;19.93;62.59
24996;BME280;13016;52.162;21.034;2023-06-14T05:56:48;100561.30;;;19.99;62.81
24996;BME280;13016;52.162;21.034;2023-06-14T06:02:54;100559.20;;;20.16;62.80
24996;BME280;13016;52.162;21.034;2023-06-14T12:59:20;100526.66;;;25.01;36.83
24996;BME280;13016;52.162;21.034;2023-06-14T13:05:20;100520.23;;;24.78;37.71
24996;BME280;13016;52.162;21.034;2023-06-14T13:11:21;100525.42;;;24.33;37.97
24996;BME280;13016;52.162;21.034;2023-06-14T13:17:21;100515.98;;;24.18;37.95
24996;BME280;13016;52.162;21.034;2023-06-14T13:23:37;100514.83;;;24.25;38.39
24996;BME280;13016;52.162;21.034;2023-06-14T13:29:37;100516.71;;;24.14;38.17
24996;BME280;13016;52.162;21.034;2023-06-14T13:42:01;100506.40;;;24.37;38.93
24996;BME280;13016;52.162;21.034;2023-06-14T13:48:14;100502.00;;;24.45;38.66
24996;BME280;13016;52.162;21.034;2023-06-14T13:54:26;100499.80;;;24.83;37.65
24996;BME280;13016;52.162;21.034;2023-06-14T14:00:26;100496.33;;;24.82;37.40
24996;BME280;13016;52.162;21.034;2023-06-14T14:06:27;100491.89;;;24.88;37.41
24996;BME280;13016;52.162;21.034;2023-06-14T14:12:27;100488.38;;;25.02;38.01
24996;BME280;13016;52.162;21.034;2023-06-14T14:18:37;100490.52;;;24.95;37.54
24996;BME280;13016;52.162;21.034;2023-06-14T14:24:38;100491.53;;;24.81;37.89
24996;BME280;13016;52.162;21.034;2023-06-14T14:30:44;100495.77;;;24.73;38.05
24996;BME280;13016;52.162;21.034;2023-06-14T14:36:51;100488.85;;;24.68;38.32
24996;BME280;13016;52.162;21.034;2023-06-14T14:42:57;100489.65;;;24.70;38.85
24996;BME280;13016;52.162;21.034;2023-06-14T14:55:36;100480.91;;;24.71;38.46
24996;BME280;13016;52.162;21.034;2023-06-14T15:01:55;100478.57;;;24.81;38.46
24996;BME280;13016;52.162;21.034;2023-06-14T15:08:21;100481.84;;;24.80;38.63
24996;BME280;13016;52.162;21.034;2023-06-14T15:14:21;100463.92;;;24.69;37.46
24996;BME280;13016;52.162;21.034;2023-06-14T15:20:42;100464.13;;;24.66;38.12
24996;BME280;13016;52.162;21.034;2023-06-14T15:26:50;100459.22;;;24.77;36.98
24996;BME280;13016;52.162;21.034;2023-06-14T15:32:59;100454.62;;;24.90;36.88
24996;BME280;13016;52.162;21.034;2023-06-14T15:39:01;100456.36;;;24.92;36.05
24996;BME280;13016;52.162;21.034;2023-06-14T16:44:19;100467.27;;;25.19;39.39
24996;BME280;13016;52.162;21.034;2023-06-14T16:50:23;100464.42;;;24.77;40.67
24996;BME280;13016;52.162;21.034;2023-06-14T17:36:11;100469.97;;;24.78;42.43
24996;BME280;13016;52.162;21.034;2023-06-14T17:42:14;100483.50;;;24.01;46.77
24996;BME280;13016;52.162;21.034;2023-06-14T17:48:15;100481.48;;;23.20;50.93
24996;BME280;13016;52.162;21.034;2023-06-14T17:54:15;100485.29;;;22.49;53.70
24996;BME280;13016;52.162;21.034;2023-06-14T18:00:25;100492.02;;;22.20;55.24
24996;BME280;13016;52.162;21.034;2023-06-14T18:32:52;100497.73;;;22.30;59.59
24996;BME280;13016;52.162;21.034;2023-06-14T18:39:11;100506.30;;;22.40;59.08
24996;BME280;13016;52.162;21.034;2023-06-14T18:45:46;100505.16;;;22.34;59.29
24996;BME280;13016;52.162;21.034;2023-06-14T19:25:35;100529.05;;;22.45;58.96
24996;BME280;13016;52.162;21.034;2023-06-14T19:31:36;100525.62;;;22.31;58.92
24996;BME280;13016;52.162;21.034;2023-06-14T19:37:45;100525.23;;;22.27;59.19
24996;BME280;13016;52.162;21.034;2023-06-14T19:43:51;100526.67;;;22.14;59.45
24996;BME280;13016;52.162;21.034;2023-06-14T19:49:52;100530.58;;;22.07;59.76
24996;BME280;13016;52.162;21.034;2023-06-14T19:56:11;100527.88;;;21.99;59.19
24996;BME280;13016;52.162;21.034;2023-06-14T20:02:13;100524.33;;;22.00;58.34
24996;BME280;13016;52.162;21.034;2023-06-14T20:08:14;100525.91;;;21.97;59.18
24996;BME280;13016;52.162;21.034;2023-06-14T20:14:50;100528.61;;;21.89;59.13
